createdAt,value
2017-10-03T00:00:19.793Z,14.28
2017-10-03T00:01:00.367Z,14.26
2017-10-03T00:01:40.933Z,14.26
2017-10-03T00:02:21.504Z,14.33
2017-10-03T00:03:02.089Z,14.26
2017-10-03T00:03:42.646Z,14.26
2017-10-03T00:04:23.248Z,14.22
2017-10-03T00:05:04.006Z,14.29
2017-10-03T00:05:44.653Z,14.32
2017-10-03T00:06:25.311Z,14.23
2017-10-03T00:07:05.968Z,14.18
2017-10-03T00:07:46.578Z,14.3
2017-10-03T00:08:27.204Z,14.26
2017-10-03T00:09:07.781Z,14.35
2017-10-03T00:09:48.525Z,14.29
2017-10-03T00:10:29.151Z,14.32
2017-10-03T00:11:09.730Z,14.29
2017-10-03T00:11:50.337Z,14.29
2017-10-03T00:12:30.940Z,14.29
2017-10-03T00:13:11.573Z,14.23
2017-10-03T00:13:52.134Z,14.22
2017-10-03T00:14:32.783Z,14.26
2017-10-03T00:15:13.380Z,14.23
2017-10-03T00:15:53.964Z,14.23
2017-10-03T00:16:34.553Z,14.2
2017-10-03T00:17:15.157Z,14.2
2017-10-03T00:17:55.740Z,14.25
2017-10-03T00:18:36.280Z,14.25
2017-10-03T00:19:16.906Z,14.22
2017-10-03T00:19:57.488Z,14.22
2017-10-03T00:20:38.081Z,14.25
2017-10-03T00:21:18.700Z,14.23
2017-10-03T00:21:59.281Z,14.17
2017-10-03T00:22:39.872Z,14.22
2017-10-03T00:23:20.438Z,14.23
2017-10-03T00:24:01.047Z,14.26
2017-10-03T00:24:41.589Z,14.29
2017-10-03T00:25:22.157Z,14.28
2017-10-03T00:26:02.752Z,14.22
2017-10-03T00:26:43.427Z,14.29
2017-10-03T00:27:24.039Z,14.22
2017-10-03T00:28:04.631Z,14.26
2017-10-03T00:28:45.235Z,14.26
2017-10-03T00:29:25.813Z,14.18
2017-10-03T00:30:06.382Z,14.17
2017-10-03T00:30:46.971Z,14.17
2017-10-03T00:31:27.570Z,14.14
2017-10-03T00:32:08.164Z,14.17
2017-10-03T00:32:48.722Z,14.11
2017-10-03T00:33:29.336Z,14.15
2017-10-03T00:34:09.927Z,14.11
2017-10-03T00:34:50.499Z,14.1
2017-10-03T00:35:31.072Z,14.12
2017-10-03T00:36:11.691Z,14.11
2017-10-03T00:36:52.289Z,14.12
2017-10-03T00:37:32.861Z,14.1
2017-10-03T00:38:13.458Z,14.11
2017-10-03T00:38:54.034Z,14.17
2017-10-03T00:39:34.628Z,14.14
2017-10-03T00:40:15.200Z,14.1
2017-10-03T00:40:55.876Z,14.08
2017-10-03T00:41:36.451Z,14.12
2017-10-03T00:42:17.060Z,14.07
2017-10-03T00:42:57.633Z,14.08
2017-10-03T00:43:38.212Z,14.07
2017-10-03T00:44:18.865Z,14.07
2017-10-03T00:44:59.414Z,14.04
2017-10-03T00:45:42.930Z,14.08
2017-10-03T00:46:23.483Z,14.11
2017-10-03T00:47:04.067Z,14.12
2017-10-03T00:47:44.719Z,14.14
2017-10-03T00:48:25.277Z,14.12
2017-10-03T00:49:05.845Z,14.07
2017-10-03T00:49:46.469Z,14.15
2017-10-03T00:50:27.010Z,14.11
2017-10-03T00:51:07.644Z,14.07
2017-10-03T00:51:48.263Z,14.08
2017-10-03T00:52:28.824Z,14.08
2017-10-03T00:53:09.422Z,14.08
2017-10-03T00:53:50.042Z,14.07
2017-10-03T00:54:30.611Z,14.07
2017-10-03T00:55:11.222Z,14.07
2017-10-03T00:55:51.942Z,14.04
2017-10-03T00:56:32.527Z,14
2017-10-03T00:57:13.163Z,14.08
2017-10-03T00:57:53.763Z,14
2017-10-03T00:58:34.374Z,14
2017-10-03T00:59:14.909Z,14.08
2017-10-03T00:59:55.648Z,14.03
2017-10-03T01:00:36.385Z,14.04
2017-10-03T01:01:16.950Z,14.05
2017-10-03T01:01:57.646Z,13.99
2017-10-03T01:02:38.269Z,13.99
2017-10-03T01:03:18.869Z,13.9
2017-10-03T01:03:59.524Z,13.99
2017-10-03T01:04:40.112Z,14
2017-10-03T01:05:20.702Z,13.97
2017-10-03T01:06:01.288Z,13.97
2017-10-03T01:06:41.902Z,13.93
2017-10-03T01:07:22.535Z,13.97
2017-10-03T01:08:03.162Z,13.93
2017-10-03T01:08:43.738Z,13.92
2017-10-03T01:09:24.335Z,13.9
2017-10-03T01:10:04.891Z,13.9
2017-10-03T01:10:45.496Z,13.95
2017-10-03T01:11:26.148Z,13.95
2017-10-03T01:12:06.726Z,13.92
2017-10-03T01:12:47.308Z,13.92
2017-10-03T01:13:27.896Z,13.85
2017-10-03T01:14:08.581Z,13.99
2017-10-03T01:14:49.138Z,13.92
2017-10-03T01:15:29.720Z,13.9
2017-10-03T01:16:10.253Z,13.93
2017-10-03T01:16:50.819Z,13.87
2017-10-03T01:17:31.515Z,13.95
2017-10-03T01:18:12.118Z,13.9
2017-10-03T01:18:52.716Z,13.87
2017-10-03T01:19:33.377Z,13.95
2017-10-03T01:20:13.975Z,13.92
2017-10-03T01:20:54.582Z,13.96
2017-10-03T01:21:35.182Z,13.9
2017-10-03T01:22:15.823Z,13.9
2017-10-03T01:22:56.383Z,13.92
2017-10-03T01:23:36.986Z,13.9
2017-10-03T01:24:17.578Z,13.87
2017-10-03T01:24:58.188Z,13.87
2017-10-03T01:25:38.771Z,13.96
2017-10-03T01:26:19.343Z,13.92
2017-10-03T01:26:59.953Z,13.92
2017-10-03T01:27:40.607Z,13.87
2017-10-03T01:28:21.151Z,13.92
2017-10-03T01:29:01.767Z,13.92
2017-10-03T01:29:42.348Z,13.9
2017-10-03T01:30:22.918Z,13.92
2017-10-03T01:31:03.532Z,13.86
2017-10-03T01:31:44.118Z,13.87
2017-10-03T01:32:24.715Z,13.87
2017-10-03T01:33:05.375Z,13.85
2017-10-03T01:33:45.953Z,13.81
2017-10-03T01:34:26.524Z,13.86
2017-10-03T01:35:07.117Z,13.81
2017-10-03T01:35:47.751Z,13.81
2017-10-03T01:36:28.334Z,13.83
2017-10-03T01:37:08.933Z,13.78
2017-10-03T01:37:49.556Z,13.77
2017-10-03T01:38:30.164Z,13.86
2017-10-03T01:39:10.703Z,13.72
2017-10-03T01:39:51.292Z,13.77
2017-10-03T01:40:31.941Z,13.79
2017-10-03T01:41:12.474Z,13.81
2017-10-03T01:41:53.087Z,13.83
2017-10-03T01:42:33.667Z,13.79
2017-10-03T01:43:14.249Z,13.71
2017-10-03T01:43:54.850Z,13.81
2017-10-03T01:44:35.437Z,13.74
2017-10-03T01:45:16.041Z,13.79
2017-10-03T01:45:56.640Z,13.81
2017-10-03T01:46:37.291Z,13.75
2017-10-03T01:47:17.924Z,13.74
2017-10-03T01:47:58.460Z,13.71
2017-10-03T01:48:39.082Z,13.79
2017-10-03T01:49:19.641Z,13.78
2017-10-03T01:50:00.264Z,13.78
2017-10-03T01:50:40.823Z,13.72
2017-10-03T01:51:21.411Z,13.78
2017-10-03T01:52:02.024Z,13.81
2017-10-03T01:52:42.649Z,13.75
2017-10-03T01:53:23.228Z,13.79
2017-10-03T01:54:03.905Z,13.79
2017-10-03T01:54:44.448Z,13.79
2017-10-03T01:55:25.033Z,13.78
2017-10-03T01:56:05.630Z,13.78
2017-10-03T01:56:46.243Z,13.75
2017-10-03T01:57:26.855Z,13.71
2017-10-03T01:58:07.499Z,13.71
2017-10-03T01:58:48.086Z,13.74
2017-10-03T01:59:28.781Z,13.72
2017-10-03T02:00:09.350Z,13.77
2017-10-03T02:00:50.057Z,13.77
2017-10-03T02:01:30.564Z,13.77
2017-10-03T02:02:11.208Z,13.71
2017-10-03T02:02:51.790Z,13.78
2017-10-03T02:03:32.433Z,13.71
2017-10-03T02:04:12.975Z,13.72
2017-10-03T02:04:53.599Z,13.75
2017-10-03T02:05:34.147Z,13.7
2017-10-03T02:06:14.759Z,13.68
2017-10-03T02:06:55.387Z,13.74
2017-10-03T02:07:35.931Z,13.72
2017-10-03T02:08:16.522Z,13.75
2017-10-03T02:08:57.145Z,13.71
2017-10-03T02:09:37.825Z,13.68
2017-10-03T02:10:18.425Z,13.7
2017-10-03T02:10:58.993Z,13.68
2017-10-03T02:11:39.631Z,13.71
2017-10-03T02:12:20.273Z,13.67
2017-10-03T02:13:00.943Z,13.67
2017-10-03T02:13:41.535Z,13.57
2017-10-03T02:14:22.131Z,13.59
2017-10-03T02:15:02.729Z,13.62
2017-10-03T02:15:43.340Z,13.59
2017-10-03T02:16:23.997Z,13.57
2017-10-03T02:17:04.578Z,13.49
2017-10-03T02:17:45.170Z,13.54
2017-10-03T02:18:25.754Z,13.57
2017-10-03T02:19:06.395Z,13.59
2017-10-03T02:19:46.975Z,13.46
2017-10-03T02:20:27.571Z,13.53
2017-10-03T02:21:08.158Z,13.47
2017-10-03T02:21:48.801Z,13.5
2017-10-03T02:22:29.372Z,13.47
2017-10-03T02:23:09.996Z,13.46
2017-10-03T02:23:50.618Z,13.47
2017-10-03T02:24:31.232Z,13.44
2017-10-03T02:25:11.848Z,13.44
2017-10-03T02:25:52.453Z,13.52
2017-10-03T02:26:33.048Z,13.5
2017-10-03T02:27:13.636Z,13.47
2017-10-03T02:27:54.253Z,13.5
2017-10-03T02:28:34.834Z,13.42
2017-10-03T02:29:15.439Z,13.5
2017-10-03T02:29:56.054Z,13.41
2017-10-03T02:30:36.701Z,13.5
2017-10-03T02:31:17.286Z,13.46
2017-10-03T02:31:57.920Z,13.47
2017-10-03T02:32:38.494Z,13.49
2017-10-03T02:33:19.125Z,13.47
2017-10-03T02:34:00.186Z,13.5
2017-10-03T02:34:40.703Z,13.49
2017-10-03T02:35:21.299Z,13.46
2017-10-03T02:36:01.907Z,13.54
2017-10-03T02:36:42.503Z,13.47
2017-10-03T02:37:23.173Z,13.5
2017-10-03T02:38:03.758Z,13.5
2017-10-03T02:38:44.466Z,13.49
2017-10-03T02:39:25.015Z,13.5
2017-10-03T02:40:05.667Z,13.42
2017-10-03T02:40:46.218Z,13.49
2017-10-03T02:41:26.811Z,13.42
2017-10-03T02:42:07.398Z,13.5
2017-10-03T02:42:47.985Z,13.49
2017-10-03T02:43:28.600Z,13.42
2017-10-03T02:44:09.206Z,13.39
2017-10-03T02:44:49.793Z,13.42
2017-10-03T02:45:30.384Z,13.44
2017-10-03T02:46:10.964Z,13.41
2017-10-03T02:46:51.548Z,13.37
2017-10-03T02:47:32.138Z,13.49
2017-10-03T02:48:12.725Z,13.52
2017-10-03T02:48:53.285Z,13.49
2017-10-03T02:49:33.845Z,13.52
2017-10-03T02:50:14.418Z,13.42
2017-10-03T02:50:55.019Z,13.47
2017-10-03T02:51:35.563Z,13.41
2017-10-03T02:52:16.153Z,13.5
2017-10-03T02:52:56.739Z,13.56
2017-10-03T02:53:37.422Z,13.46
2017-10-03T02:54:17.972Z,13.39
2017-10-03T02:54:58.552Z,13.39
2017-10-03T02:55:39.148Z,13.41
2017-10-03T02:56:19.693Z,13.44
2017-10-03T02:57:00.277Z,13.35
2017-10-03T02:57:40.855Z,13.41
2017-10-03T02:58:21.431Z,13.49
2017-10-03T02:59:02.032Z,13.38
2017-10-03T02:59:42.629Z,13.38
2017-10-03T03:00:23.247Z,13.44
2017-10-03T03:01:03.825Z,13.42
2017-10-03T03:01:44.407Z,13.5
2017-10-03T03:02:25.001Z,13.41
2017-10-03T03:03:05.592Z,13.47
2017-10-03T03:03:46.161Z,13.41
2017-10-03T03:04:26.731Z,13.37
2017-10-03T03:05:07.327Z,13.42
2017-10-03T03:05:47.879Z,13.37
2017-10-03T03:06:28.465Z,13.38
2017-10-03T03:07:09.132Z,13.39
2017-10-03T03:07:49.671Z,13.41
2017-10-03T03:08:30.243Z,13.41
2017-10-03T03:09:10.837Z,13.38
2017-10-03T03:09:51.415Z,13.41
2017-10-03T03:10:32.113Z,13.47
2017-10-03T03:11:12.697Z,13.37
2017-10-03T03:11:53.344Z,13.44
2017-10-03T03:12:33.931Z,13.37
2017-10-03T03:13:14.506Z,13.39
2017-10-03T03:13:55.093Z,13.35
2017-10-03T03:14:35.695Z,13.41
2017-10-03T03:15:16.355Z,13.42
2017-10-03T03:15:56.936Z,13.46
2017-10-03T03:16:37.525Z,13.37
2017-10-03T03:17:18.109Z,13.35
2017-10-03T03:17:58.716Z,13.38
2017-10-03T03:18:39.347Z,13.35
2017-10-03T03:19:19.990Z,13.35
2017-10-03T03:20:00.546Z,13.38
2017-10-03T03:20:41.131Z,13.44
2017-10-03T03:21:21.711Z,13.39
2017-10-03T03:22:02.333Z,13.42
2017-10-03T03:22:42.954Z,13.38
2017-10-03T03:23:23.543Z,13.38
2017-10-03T03:24:04.142Z,13.39
2017-10-03T03:24:44.775Z,13.44
2017-10-03T03:25:25.468Z,13.38
2017-10-03T03:26:06.021Z,13.42
2017-10-03T03:26:46.592Z,13.46
2017-10-03T03:27:27.156Z,13.39
2017-10-03T03:28:07.764Z,13.44
2017-10-03T03:28:48.348Z,13.41
2017-10-03T03:29:28.965Z,13.35
2017-10-03T03:30:09.527Z,13.38
2017-10-03T03:30:50.183Z,13.42
2017-10-03T03:31:30.839Z,13.39
2017-10-03T03:32:11.457Z,13.39
2017-10-03T03:32:52.044Z,13.3
2017-10-03T03:33:32.651Z,13.31
2017-10-03T03:34:13.272Z,13.46
2017-10-03T03:34:53.875Z,13.35
2017-10-03T03:35:34.706Z,13.39
2017-10-03T03:36:15.140Z,13.39
2017-10-03T03:36:55.713Z,13.3
2017-10-03T03:37:36.301Z,13.31
2017-10-03T03:38:16.884Z,13.39
2017-10-03T03:38:57.487Z,13.35
2017-10-03T03:39:38.049Z,13.41
2017-10-03T03:40:18.688Z,13.41
2017-10-03T03:40:59.276Z,13.37
2017-10-03T03:41:39.887Z,13.41
2017-10-03T03:42:20.501Z,13.28
2017-10-03T03:43:01.076Z,13.39
2017-10-03T03:43:41.778Z,13.37
2017-10-03T03:44:22.351Z,13.35
2017-10-03T03:45:02.915Z,13.37
2017-10-03T03:45:43.509Z,13.31
2017-10-03T03:46:24.112Z,13.38
2017-10-03T03:47:04.650Z,13.31
2017-10-03T03:47:45.235Z,13.3
2017-10-03T03:48:25.833Z,13.37
2017-10-03T03:49:06.378Z,13.37
2017-10-03T03:49:46.942Z,13.33
2017-10-03T03:50:27.508Z,13.31
2017-10-03T03:51:08.070Z,13.31
2017-10-03T03:51:48.648Z,13.2
2017-10-03T03:52:29.231Z,13.38
2017-10-03T03:53:09.777Z,13.23
2017-10-03T03:53:50.336Z,13.28
2017-10-03T03:54:30.931Z,13.23
2017-10-03T03:55:11.463Z,13.27
2017-10-03T03:55:52.035Z,13.2
2017-10-03T03:56:32.620Z,13.23
2017-10-03T03:57:13.244Z,13.19
2017-10-03T03:57:53.799Z,13.22
2017-10-03T03:58:34.399Z,13.2
2017-10-03T03:59:14.950Z,13.28
2017-10-03T03:59:55.531Z,13.27
2017-10-03T04:00:36.153Z,13.25
2017-10-03T04:01:16.706Z,13.2
2017-10-03T04:01:57.275Z,13.18
2017-10-03T04:02:37.839Z,13.28
2017-10-03T04:03:18.409Z,13.27
2017-10-03T04:03:59.000Z,13.28
2017-10-03T04:04:39.596Z,13.3
2017-10-03T04:05:20.177Z,13.25
2017-10-03T04:06:00.754Z,13.27
2017-10-03T04:06:41.352Z,13.27
2017-10-03T04:07:21.926Z,13.28
2017-10-03T04:08:02.510Z,13.19
2017-10-03T04:08:43.082Z,13.3
2017-10-03T04:09:23.662Z,13.28
2017-10-03T04:10:04.253Z,13.2
2017-10-03T04:10:44.817Z,13.2
2017-10-03T04:11:25.380Z,13.25
2017-10-03T04:12:05.949Z,13.25
2017-10-03T04:12:46.515Z,13.22
2017-10-03T04:13:27.098Z,13.23
2017-10-03T04:14:07.670Z,13.18
2017-10-03T04:14:48.281Z,13.16
2017-10-03T04:15:28.864Z,13.13
2017-10-03T04:16:09.457Z,13.22
2017-10-03T04:16:50.034Z,13.12
2017-10-03T04:17:30.667Z,13.15
2017-10-03T04:18:11.230Z,13.05
2017-10-03T04:18:51.796Z,13.05
2017-10-03T04:19:32.390Z,13.15
2017-10-03T04:20:13.010Z,13.11
2017-10-03T04:20:53.582Z,13.11
2017-10-03T04:21:34.175Z,13.16
2017-10-03T04:22:14.798Z,13.09
2017-10-03T04:22:55.355Z,13.15
2017-10-03T04:23:35.924Z,13.08
2017-10-03T04:24:16.683Z,13.11
2017-10-03T04:24:57.177Z,13.08
2017-10-03T04:25:37.774Z,13.09
2017-10-03T04:26:18.366Z,13.12
2017-10-03T04:26:58.957Z,13.12
2017-10-03T04:27:39.548Z,13.08
2017-10-03T04:28:20.189Z,13.08
2017-10-03T04:29:00.776Z,13.08
2017-10-03T04:29:41.393Z,13.09
2017-10-03T04:30:22.014Z,13.11
2017-10-03T04:31:02.579Z,13.05
2017-10-03T04:31:43.190Z,13.11
2017-10-03T04:32:23.762Z,13.08
2017-10-03T04:33:04.365Z,13.08
2017-10-03T04:33:44.953Z,13.08
2017-10-03T04:34:25.551Z,13.08
2017-10-03T04:35:06.282Z,13.05
2017-10-03T04:35:46.862Z,13.11
2017-10-03T04:36:27.701Z,13.12
2017-10-03T04:37:08.286Z,13.11
2017-10-03T04:37:48.973Z,13.08
2017-10-03T04:38:29.588Z,13.09
2017-10-03T04:39:10.196Z,13.09
2017-10-03T04:39:50.787Z,13.12
2017-10-03T04:40:31.370Z,13.08
2017-10-03T04:41:11.995Z,13.12
2017-10-03T04:41:52.603Z,13.05
2017-10-03T04:42:33.222Z,13.15
2017-10-03T04:43:13.821Z,13.09
2017-10-03T04:43:54.409Z,13.16
2017-10-03T04:44:34.978Z,13.08
2017-10-03T04:45:15.617Z,13.12
2017-10-03T04:45:56.208Z,13.12
2017-10-03T04:46:36.804Z,13.05
2017-10-03T04:47:17.465Z,13.15
2017-10-03T04:47:58.075Z,13.04
2017-10-03T04:48:38.779Z,13.11
2017-10-03T04:49:19.364Z,13.11
2017-10-03T04:49:59.935Z,13.08
2017-10-03T04:50:40.500Z,13.08
2017-10-03T04:51:21.050Z,13.11
2017-10-03T04:52:01.637Z,13.03
2017-10-03T04:52:42.195Z,13.03
2017-10-03T04:53:22.769Z,13.08
2017-10-03T04:54:03.339Z,13.05
2017-10-03T04:54:45.664Z,13.04
2017-10-03T04:55:26.291Z,12.98
2017-10-03T04:56:07.935Z,13.01
2017-10-03T04:56:57.797Z,13.08
2017-10-03T04:57:43.278Z,13.04
2017-10-03T04:58:33.880Z,13
2017-10-03T04:59:22.355Z,13.05
2017-10-03T05:00:15.150Z,13.03
2017-10-03T05:00:58.970Z,13.05
2017-10-03T05:01:39.820Z,13.04
2017-10-03T05:02:23.781Z,13.03
2017-10-03T05:04:26.042Z,13.05
2017-10-03T05:05:09.913Z,13.01
2017-10-03T05:05:52.834Z,13.04
2017-10-03T05:06:39.994Z,13.03
2017-10-03T05:07:22.234Z,13.04
2017-10-03T05:08:03.967Z,13.01
2017-10-03T05:08:45.932Z,13.01
2017-10-03T05:09:31.623Z,13.03
2017-10-03T05:10:15.778Z,13.05
2017-10-03T05:10:58.429Z,13.05
2017-10-03T05:11:42.162Z,13.01
2017-10-03T05:12:25.550Z,13.05
2017-10-03T05:13:08.922Z,13.05
2017-10-03T05:13:53.811Z,13.08
2017-10-03T05:14:39.260Z,13.05
2017-10-03T05:15:23.960Z,13.03
2017-10-03T05:17:02.629Z,13.09
2017-10-03T05:17:45.834Z,13.05
2017-10-03T05:18:28.721Z,13.01
2017-10-03T05:19:12.656Z,13.03
2017-10-03T05:19:57.932Z,13.05
2017-10-03T05:20:41.811Z,13.05
2017-10-03T05:21:27.407Z,13.03
2017-10-03T05:22:10.841Z,13.01
2017-10-03T05:22:52.266Z,13.05
2017-10-03T05:23:36.968Z,13.04
2017-10-03T05:24:19.125Z,13.05
2017-10-03T05:25:07.523Z,13.05
2017-10-03T05:25:56.140Z,13.04
2017-10-03T05:26:41.337Z,13.01
2017-10-03T05:27:28.543Z,13.03
2017-10-03T05:28:20.972Z,13
2017-10-03T05:29:09.360Z,13.04
2017-10-03T05:29:51.291Z,13.08
2017-10-03T05:30:34.018Z,13.01
2017-10-03T05:31:16.331Z,13.03
2017-10-03T05:32:00.310Z,13.03
2017-10-03T05:32:40.950Z,13.04
2017-10-03T05:33:22.225Z,13.08
2017-10-03T05:34:02.777Z,13.04
2017-10-03T05:34:44.715Z,13.11
2017-10-03T05:35:31.357Z,13.08
2017-10-03T05:36:19.729Z,13.08
2017-10-03T05:37:00.307Z,13.09
2017-10-03T05:37:40.870Z,13.12
2017-10-03T05:38:21.441Z,13.16
2017-10-03T05:39:01.994Z,13.04
2017-10-03T05:39:42.582Z,13.09
2017-10-03T05:40:23.215Z,13.11
2017-10-03T05:41:03.793Z,13.12
2017-10-03T05:41:44.415Z,13.16
2017-10-03T05:42:25.016Z,13.13
2017-10-03T05:43:05.590Z,13.08
2017-10-03T05:43:46.198Z,13.16
2017-10-03T05:44:26.772Z,13.11
2017-10-03T05:45:07.322Z,13.09
2017-10-03T05:45:47.898Z,13.16
2017-10-03T05:46:28.473Z,13.08
2017-10-03T05:47:09.051Z,13.08
2017-10-03T05:47:49.614Z,13.08
2017-10-03T05:48:30.188Z,13.12
2017-10-03T05:49:10.744Z,13.08
2017-10-03T05:49:51.339Z,13.16
2017-10-03T05:50:31.916Z,13.16
2017-10-03T05:51:12.506Z,13.18
2017-10-03T05:51:53.090Z,13.12
2017-10-03T05:52:33.707Z,13.18
2017-10-03T05:53:14.247Z,13.16
2017-10-03T05:53:54.875Z,13.12
2017-10-03T05:54:35.468Z,13.2
2017-10-03T05:55:16.044Z,13.19
2017-10-03T05:55:56.612Z,13.27
2017-10-03T05:56:37.217Z,13.27
2017-10-03T05:57:17.803Z,13.22
2017-10-03T05:57:58.382Z,13.15
2017-10-03T05:58:38.948Z,13.28
2017-10-03T05:59:19.546Z,13.19
2017-10-03T06:00:00.114Z,13.28
2017-10-03T06:00:40.724Z,13.2
2017-10-03T06:01:21.300Z,13.25
2017-10-03T06:02:01.871Z,13.27
2017-10-03T06:02:42.548Z,13.27
2017-10-03T06:03:23.137Z,13.2
2017-10-03T06:04:03.722Z,13.27
2017-10-03T06:04:44.343Z,13.25
2017-10-03T06:05:24.902Z,13.23
2017-10-03T06:06:05.464Z,13.2
2017-10-03T06:06:46.077Z,13.22
2017-10-03T06:07:26.640Z,13.25
2017-10-03T06:08:07.230Z,13.19
2017-10-03T06:08:47.892Z,13.27
2017-10-03T06:09:28.499Z,13.19
2017-10-03T06:10:09.089Z,13.16
2017-10-03T06:10:49.673Z,13.27
2017-10-03T06:11:30.358Z,13.35
2017-10-03T06:12:10.978Z,13.33
2017-10-03T06:12:51.571Z,13.23
2017-10-03T06:13:32.791Z,13.35
2017-10-03T06:14:13.416Z,13.33
2017-10-03T06:14:53.984Z,13.37
2017-10-03T06:15:34.555Z,13.35
2017-10-03T06:16:15.175Z,13.31
2017-10-03T06:16:55.746Z,13.33
2017-10-03T06:17:36.296Z,13.28
2017-10-03T06:18:16.862Z,13.16
2017-10-03T06:18:57.450Z,13.3
2017-10-03T06:19:38.019Z,13.35
2017-10-03T06:20:18.592Z,13.31
2017-10-03T06:20:59.155Z,13.33
2017-10-03T06:21:39.744Z,13.35
2017-10-03T06:22:20.378Z,13.23
2017-10-03T06:23:00.993Z,13.33
2017-10-03T06:23:41.566Z,13.35
2017-10-03T06:24:22.124Z,13.33
2017-10-03T06:25:02.700Z,13.35
2017-10-03T06:25:43.295Z,13.33
2017-10-03T06:26:23.909Z,13.38
2017-10-03T06:27:04.490Z,13.35
2017-10-03T06:27:45.088Z,13.35
2017-10-03T06:28:25.667Z,13.3
2017-10-03T06:29:06.310Z,13.39
2017-10-03T06:29:46.872Z,13.38
2017-10-03T06:30:27.494Z,13.35
2017-10-03T06:31:08.037Z,13.38
2017-10-03T06:31:48.632Z,13.37
2017-10-03T06:32:29.213Z,13.38
2017-10-03T06:33:09.796Z,13.41
2017-10-03T06:33:50.408Z,13.38
2017-10-03T06:34:30.994Z,13.37
2017-10-03T06:35:11.555Z,13.42
2017-10-03T06:35:52.114Z,13.42
2017-10-03T06:36:32.676Z,13.38
2017-10-03T06:37:13.240Z,13.41
2017-10-03T06:37:53.808Z,13.39
2017-10-03T06:38:34.383Z,13.35
2017-10-03T06:39:14.955Z,13.39
2017-10-03T06:39:55.525Z,13.37
2017-10-03T06:40:36.079Z,13.42
2017-10-03T06:41:16.629Z,13.44
2017-10-03T06:41:57.220Z,13.42
2017-10-03T06:42:37.792Z,13.5
2017-10-03T06:43:18.383Z,13.46
2017-10-03T06:43:58.951Z,13.42
2017-10-03T06:44:39.497Z,13.47
2017-10-03T06:45:20.063Z,13.47
2017-10-03T06:46:00.634Z,13.42
2017-10-03T06:46:41.201Z,13.42
2017-10-03T06:47:21.782Z,13.49
2017-10-03T06:48:02.375Z,13.46
2017-10-03T06:48:43.130Z,13.46
2017-10-03T06:49:23.692Z,13.42
2017-10-03T06:50:04.328Z,13.38
2017-10-03T06:50:44.939Z,13.41
2017-10-03T06:51:25.540Z,13.39
2017-10-03T06:52:06.104Z,13.52
2017-10-03T06:52:46.701Z,13.41
2017-10-03T06:53:27.296Z,13.67
2017-10-03T06:54:07.863Z,13.74
2017-10-03T06:54:48.433Z,13.9
2017-10-03T06:55:29.037Z,13.9
2017-10-03T06:56:09.633Z,14
2017-10-03T06:56:50.195Z,14.12
2017-10-03T06:57:30.786Z,14.28
2017-10-03T06:58:11.355Z,14.4
2017-10-03T06:58:51.913Z,14.48
2017-10-03T06:59:32.495Z,14.55
2017-10-03T07:00:13.126Z,14.63
2017-10-03T07:00:53.681Z,14.69
2017-10-03T07:01:34.233Z,14.72
2017-10-03T07:02:14.834Z,14.68
2017-10-03T07:02:55.431Z,14.89
2017-10-03T07:03:35.979Z,14.94
2017-10-03T07:04:16.541Z,14.96
2017-10-03T07:04:57.127Z,15.06
2017-10-03T07:05:37.706Z,15.11
2017-10-03T07:06:18.343Z,15.28
2017-10-03T07:06:58.940Z,15.24
2017-10-03T07:07:39.503Z,15.31
2017-10-03T07:08:20.130Z,15.33
2017-10-03T07:09:00.717Z,15.28
2017-10-03T07:09:41.314Z,15.42
2017-10-03T07:10:21.899Z,15.4
2017-10-03T07:11:02.473Z,15.52
2017-10-03T07:11:43.040Z,15.49
2017-10-03T07:12:23.611Z,15.51
2017-10-03T07:13:04.198Z,15.49
2017-10-03T07:13:44.798Z,15.58
2017-10-03T07:14:25.423Z,15.61
2017-10-03T07:15:05.942Z,15.65
2017-10-03T07:15:46.556Z,15.76
2017-10-03T07:16:27.212Z,15.73
2017-10-03T07:17:07.778Z,15.75
2017-10-03T07:17:48.337Z,15.8
2017-10-03T07:18:28.913Z,15.91
2017-10-03T07:19:09.489Z,15.82
2017-10-03T07:19:50.108Z,15.95
2017-10-03T07:20:30.656Z,15.94
2017-10-03T07:21:11.234Z,15.95
2017-10-03T07:21:51.807Z,15.9
2017-10-03T07:22:32.420Z,15.95
2017-10-03T07:23:12.989Z,16.02
2017-10-03T07:23:53.585Z,15.97
2017-10-03T07:24:34.258Z,16.01
2017-10-03T07:25:14.884Z,16.05
2017-10-03T07:25:55.486Z,16.05
2017-10-03T07:26:36.054Z,16.1
2017-10-03T07:27:16.623Z,16.02
2017-10-03T07:27:57.239Z,16.09
2017-10-03T07:28:37.916Z,16.05
2017-10-03T07:29:18.505Z,16.1
2017-10-03T07:29:59.086Z,16.01
2017-10-03T07:30:39.644Z,16.08
2017-10-03T07:31:20.210Z,16.09
2017-10-03T07:32:00.792Z,16.05
2017-10-03T07:32:41.393Z,16.08
2017-10-03T07:33:21.965Z,16.17
2017-10-03T07:34:02.565Z,16.31
2017-10-03T07:34:43.155Z,16.33
2017-10-03T07:35:23.719Z,16.29
2017-10-03T07:36:04.282Z,16.39
2017-10-03T07:36:44.869Z,16.32
2017-10-03T07:37:25.491Z,16.43
2017-10-03T07:38:06.118Z,16.38
2017-10-03T07:38:46.677Z,16.32
2017-10-03T07:39:27.278Z,16.26
2017-10-03T07:40:07.874Z,16.21
2017-10-03T07:40:48.443Z,16.13
2017-10-03T07:41:29.018Z,15.98
2017-10-03T07:42:09.622Z,16.01
2017-10-03T07:42:50.185Z,15.92
2017-10-03T07:43:30.767Z,15.8
2017-10-03T07:44:11.343Z,15.76
2017-10-03T07:44:51.920Z,15.77
2017-10-03T07:45:32.513Z,15.79
2017-10-03T07:46:13.173Z,15.83
2017-10-03T07:46:53.741Z,15.92
2017-10-03T07:47:34.305Z,16.01
2017-10-03T07:48:14.884Z,16.01
2017-10-03T07:48:55.474Z,16.09
2017-10-03T07:49:36.086Z,16.12
2017-10-03T07:50:16.663Z,16.1
2017-10-03T07:50:57.225Z,15.97
2017-10-03T07:51:37.797Z,16.02
2017-10-03T07:52:18.375Z,15.98
2017-10-03T07:52:58.952Z,15.92
2017-10-03T07:53:39.508Z,15.76
2017-10-03T07:54:20.070Z,15.79
2017-10-03T07:55:00.662Z,15.67
2017-10-03T07:55:41.232Z,15.64
2017-10-03T07:56:21.808Z,15.58
2017-10-03T07:57:02.398Z,15.51
2017-10-03T07:57:43.009Z,15.44
2017-10-03T07:58:23.578Z,15.35
2017-10-03T07:59:04.153Z,15.42
2017-10-03T07:59:44.718Z,15.37
2017-10-03T08:00:25.280Z,15.28
2017-10-03T08:01:05.842Z,15.24
2017-10-03T08:01:46.424Z,15.21
2017-10-03T08:02:26.989Z,15.18
2017-10-03T08:03:07.564Z,15.19
2017-10-03T08:03:48.135Z,15.1
2017-10-03T08:04:28.687Z,15.09
2017-10-03T08:05:09.262Z,15.09
2017-10-03T08:05:49.866Z,15.03
2017-10-03T08:06:30.446Z,14.94
2017-10-03T08:07:11.033Z,14.81
2017-10-03T08:07:51.602Z,14.79
2017-10-03T08:08:32.173Z,14.78
2017-10-03T08:09:12.731Z,14.79
2017-10-03T08:09:53.309Z,14.81
2017-10-03T08:10:33.910Z,14.66
2017-10-03T08:11:14.510Z,14.65
2017-10-03T08:11:55.091Z,14.69
2017-10-03T08:12:35.983Z,14.66
2017-10-03T08:13:16.698Z,14.65
2017-10-03T08:13:57.305Z,14.65
2017-10-03T08:14:37.892Z,14.65
2017-10-03T08:15:18.579Z,14.59
2017-10-03T08:15:59.181Z,14.66
2017-10-03T08:16:39.755Z,14.59
2017-10-03T08:17:20.782Z,14.65
2017-10-03T08:18:01.351Z,14.62
2017-10-03T08:18:41.924Z,14.62
2017-10-03T08:19:22.500Z,14.54
2017-10-03T08:20:03.090Z,14.63
2017-10-03T08:20:43.688Z,14.5
2017-10-03T08:21:24.878Z,14.48
2017-10-03T08:22:05.458Z,14.68
2017-10-03T08:22:46.045Z,14.53
2017-10-03T08:23:26.722Z,14.6
2017-10-03T08:24:07.234Z,14.62
2017-10-03T08:24:47.828Z,14.62
2017-10-03T08:25:28.446Z,14.68
2017-10-03T08:26:09.111Z,14.66
2017-10-03T08:26:49.681Z,14.68
2017-10-03T08:27:30.241Z,14.66
2017-10-03T08:28:10.859Z,14.69
2017-10-03T08:28:51.408Z,14.73
2017-10-03T08:29:31.971Z,14.84
2017-10-03T08:30:12.656Z,14.81
2017-10-03T08:30:53.417Z,14.91
2017-10-03T08:31:34.306Z,14.88
2017-10-03T08:32:15.279Z,15.1
2017-10-03T08:32:55.888Z,15.09
2017-10-03T08:33:36.500Z,15.25
2017-10-03T08:34:17.061Z,15.27
2017-10-03T08:34:57.644Z,15.25
2017-10-03T08:35:38.269Z,15.29
2017-10-03T08:36:18.866Z,15.28
2017-10-03T08:36:59.432Z,15.33
2017-10-03T08:37:40.003Z,15.37
2017-10-03T08:38:20.586Z,15.44
2017-10-03T08:39:01.172Z,15.42
2017-10-03T08:39:42.052Z,15.37
2017-10-03T08:40:22.605Z,15.36
2017-10-03T08:41:03.187Z,15.4
2017-10-03T08:41:43.769Z,15.4
2017-10-03T08:42:24.328Z,15.36
2017-10-03T08:43:04.903Z,15.29
2017-10-03T08:43:45.504Z,15.36
2017-10-03T08:44:26.379Z,15.29
2017-10-03T08:45:08.714Z,15.29
2017-10-03T08:45:49.344Z,15.22
2017-10-03T08:46:29.930Z,15.24
2017-10-03T08:47:10.508Z,15.27
2017-10-03T08:47:51.138Z,15.28
2017-10-03T08:48:31.985Z,15.18
2017-10-03T08:49:12.406Z,15.19
2017-10-03T08:49:53.343Z,15.19
2017-10-03T08:50:34.118Z,15.24